AirNav   Duncan Aviation - Near you to keep you flying
 
 508 users online  

62C Cindy Guntly Memorial Airport
Franksville, Wisconsin, USA

GOING TO FRANKSVILLE?


FAA INFORMATION EFFECTIVE 01 DECEMBER 2022

Location

FAA Identifier: 62C
Lat/Long: 42-48-39.3800N 088-05-38.5300W
42-48.656333N 088-05.642167W
42.8109389,-88.0940361
(estimated)
Elevation: 790 ft. / 241 m (estimated)
Variation: 01W (1985)
From city: 7 miles NW of FRANKSVILLE, WI
Time zone: UTC -6 (UTC -5 during Daylight Saving Time)
Zip code: 53126

Airport Operations

Airport use: Open to the public
Activation date: 03/1962
Control tower: no
ARTCC: CHICAGO CENTER
FSS: GREEN BAY FLIGHT SERVICE STATION
NOTAMs facility: GRB (NOTAM-D service available)
Attendance: UNATNDD
Wind indicator: yes
Segmented circle: no
Lights: ACTVT LIRL RY 01/19 - CTAF.

Airport Communications

CTAF: 122.9
WX AWOS-3 at BUU (12 nm SW): 125.275 (262-757-0907)
WX ASOS at MKE (12 nm NE): 126.4 (414-489-2168)
WX AWOS-3PT at 57C (12 nm W): 118.125 (262-642-1845)
WX ASOS at RAC (13 nm E): 121.425 (262-635-0959)
WX ASOS at ENW (15 nm SE): PHONE 262-652-7730
WX AWOS-3 at UES (15 nm NW): 118.875 (262-521-5226)
WX AWOS-3 at MWC (18 nm N): PHONE 414-461-2954

Nearby radio navigation aids

VOR radial/distance  VOR name  Freq  Var
BAEr154/20.2BADGER VOR/DME116.4002E
OBKr352/35.9NORTHBROOK VOR/DME113.0002W
BJBr179/(36.7)WEST BEND VOR109.8001W

 
NDB name  Hdg/Dist  Freq  Var  ID
ROCK RIVER129/35.237101WRYV .-. -.-- ...-

Airport Services

Parking: tiedowns
Airframe service: NONE
Powerplant service: NONE
Bottled oxygen: NONE
Bulk oxygen: NONE

Runway Information

Runway 1/19

Dimensions: 2425 x 70 ft. / 739 x 21 m
Surface: turf, in good condition
Runway edge lights: non-standard
RY 01/19 NSTD LIRL HAS 2 PAIRS OF LGTS EACH END.
RUNWAY 1  RUNWAY 19
Latitude: 42-48.482333N42-48.874167N
Longitude: 088-05.704833W088-05.600500W
Elevation: 777.0 ft.782.0 ft.
Traffic pattern: leftleft
Runway heading: 012 magnetic, 011 true192 magnetic, 191 true
Obstructions: 20 ft. brush, 55 ft. left of centerline, 1:1 slope to clear20 ft. brush, 70 ft. right of centerline, 1:1 slope to clear

Runway 18/36

Dimensions: 1200 x 80 ft. / 366 x 24 m
Surface: turf, in fair condition
ROUGH & UNDULATING ROLLING TERRAIN.
RUNWAY 18  RUNWAY 36
Latitude: 42-48.710167N42-48.512667N
Longitude: 088-05.616333W088-05.625667W
Elevation: 776.0 ft.790.0 ft.
Traffic pattern: leftleft
Runway heading: 183 magnetic, 182 true003 magnetic, 002 true
Obstructions: 10 ft. brush, 8 ft. from runway, 50 ft. left of centerline, 1:1 slope to clear20 ft. brush, 70 ft. from runway, 100 ft. right of centerline, 3:1 slope to clear

Airport Ownership and Management from official FAA records

Ownership: Privately-owned
Owner: DAVID GUNTLY
22031 SIX MILE RD
FRANKSVILLE, WI 53126
Phone 414-587-1528
Manager: DAVID GUNTLY
22031 SIX MILE RD
FRANKSVILLE, WI 53126
Phone 414-587-1528
EMAIL ADDRESS: CRAZYBIPLANE@GMAIL.COM (ALL LOWER CASE)

Airport Operational Statistics

Aircraft based on the field: 34
Single engine airplanes: 30
Helicopters: 1
Ultralights: 3
    
Aircraft operations: avg 128/week *
78% local general aviation
22% transient general aviation
* for 12-month period ending 02 June 2022

Additional Remarks

RY 18 & 19 GND DROPS OFF RAPIDLY AT 'S' END.
FOR CD CTC CHICAGO ARTCC AT 630-906-8921.

Instrument Procedures

There are no published instrument procedures at 62C.

Some nearby airports with instrument procedures:

KBUU - Burlington Municipal Airport (12 nm SW)
KMKE - General Mitchell International Airport (12 nm NE)
57C - East Troy Municipal Airport (12 nm W)
KRAC - Batten International Airport (13 nm E)
KENW - Kenosha Regional Airport (15 nm SE)
KUES - Waukesha County Airport (15 nm NW)
C02 - Grand Geneva Resort Airport (18 nm SW)
KMWC - Lawrence J Timmerman Airport (18 nm N)
 
Loc | Ops | Rwys | IFR | FBO | Links
Com | Nav | Svcs | Stats | Notes
Area around 62C (Cindy Guntly Memorial Airport)
 
Road maps at: MapQuest Bing Google
 
Aerial photo
WARNING: Photo may not be current or correct
Aerial photo of 62C (Cindy Guntly Memorial Airport)
Photo by Amy Gesch
Photo taken 17-Oct-2005

Do you have a better or more recent aerial photo of Cindy Guntly Memorial Airport that you would like to share? If so, please send us your photo.

 
Sectional chart

 
Airport distance calculator
Flying to Cindy Guntly Memorial Airport? Find the distance to fly.

From to 62C

Sunrise and sunset
Times for 03-Dec-2022
 Local
(UTC-6)
 Zulu
(UTC)
Morning civil twilight06:3512:35
Sunrise07:0613:06
Sunset16:1822:18
Evening civil twilight16:5022:50

Current date and time
Zulu (UTC)  04-Dec-2022 05:52:57
Local (UTC-6)  03-Dec-2022 23:52:57
 
METAR
KBUU 
12nm SW 
040535Z AUTO 25005KT 10SM CLR M08/M13 A3036 RMK AO2 T10761133 PWINO
KMKE 
12nm NE 
040452Z 25011G17KT 10SM CLR M06/M13 A3036 RMK AO2 SLP292 T10561133
K57C 
12nm W 
040535Z AUTO 24004KT 10SM CLR M09/M13 A3034 RMK AO2 T10881135
KUES 
12nm N 
040535Z AUTO 25008KT 10SM CLR M08/M13 A3034 RMK AO2
KRAC 
12nm E 
040453Z AUTO 26008KT 10SM CLR M07/M13 A3038 RMK AO2 SLP298 T10671133
KENW 
15nm SE 
040453Z AUTO 25009KT 10SM CLR M07/M13 A3037 RMK AO2 SLP296 T10721133
KMWC 
19nm N 
040535Z AUTO 23009G15KT 10SM CLR M07/M15 A3034 RMK AO2
TAF
KMKE 
12nm NE 
040258Z 0403/0506 24006KT P6SM SKC FM040800 24012KT P6SM SKC FM041200 23011G19KT P6SM SKC FM041400 24012G23KT P6SM SKC FM042300 21010KT P6SM SKC
KUES 
12nm N 
032109Z 0321/0418 29013G22KT P6SM SKC FM032300 27010KT P6SM SKC FM040500 25009KT P6SM SKC FM041200 23011G18KT P6SM SKC FM041500 25013G23KT P6SM SKC
KENW 
15nm SE 
032110Z 0321/0418 29012G21KT P6SM SKC FM040000 27008KT P6SM SKC FM040800 24009KT P6SM SKC FM041200 23011G17KT P6SM SKC FM041400 24013G22KT P6SM SKC
NOTAMs
Click for the latest NOTAMs
NOTAMs are issued by the DoD/FAA and will open in a separate window not controlled by AirNav.

 

 
 

Would you like to see your business listed on this page?

 If your business provides an interesting product or service to pilots, flight crews, aircraft, or users of the Cindy Guntly Memorial Airport, you should consider listing it here.  To start the listing process, click on the button below
 
Add a business
 

Other Pages about Cindy Guntly Memorial Airport

Page from the Wisconsin airport directory (PDF)
 
Update a link
 
Copyright © AirNav, LLC. All rights reserved. Privacy Policy  Contact